createdAt,value
2022-10-09T00:01:09.518Z,101985.56
2022-10-09T00:03:40.554Z,101986.47
2022-10-09T00:06:10.794Z,101993.56
2022-10-09T00:08:39.927Z,101994.47
2022-10-09T00:11:09.307Z,101994.44
2022-10-09T00:13:38.030Z,101991.78
2022-10-09T00:16:07.691Z,101998.88
2022-10-09T00:18:36.366Z,101992.69
2022-10-09T00:21:06.758Z,101993.56
2022-10-09T00:23:34.707Z,101993.56
2022-10-09T00:26:03.144Z,101993.56
2022-10-09T00:28:36.508Z,101989.13
2022-10-09T00:31:07.282Z,102006.00
2022-10-09T00:33:35.876Z,102006.00
2022-10-09T00:36:06.458Z,102008.63
2022-10-09T00:38:34.587Z,102010.44
2022-10-09T00:41:02.716Z,102013.09
2022-10-09T00:43:45.455Z,101999.81
2022-10-09T00:46:21.436Z,102009.56
2022-10-09T00:48:57.670Z,102013.09
2022-10-09T00:51:27.853Z,102015.75
2022-10-09T00:53:55.963Z,102013.97
2022-10-09T00:56:24.320Z,102017.50
2022-10-09T00:58:56.033Z,102018.41
2022-10-09T01:01:24.071Z,102016.63
2022-10-09T01:03:52.048Z,102021.94
2022-10-09T01:06:24.597Z,102024.59
2022-10-09T01:09:02.718Z,102021.94
2022-10-09T01:11:39.811Z,102026.38
2022-10-09T01:14:18.562Z,102021.94
2022-10-09T01:16:51.782Z,102027.28
2022-10-09T01:19:36.614Z,102018.41
2022-10-09T01:22:15.419Z,102020.19
2022-10-09T01:24:53.561Z,102022.81
2022-10-09T01:27:25.261Z,102021.03
2022-10-09T01:29:57.146Z,102013.97
2022-10-09T01:32:29.365Z,102026.38
2022-10-09T01:34:58.801Z,102021.94
2022-10-09T01:37:29.535Z,102019.28
2022-10-09T01:39:58.689Z,102021.06
2022-10-09T01:42:30.245Z,102017.50
2022-10-09T01:44:58.246Z,102017.50
2022-10-09T01:47:26.693Z,102022.84
2022-10-09T01:50:02.005Z,102021.94
2022-10-09T01:52:43.091Z,102016.59
2022-10-09T01:55:28.404Z,102021.03
2022-10-09T01:58:05.629Z,102017.50
2022-10-09T02:00:38.053Z,102030.78
2022-10-09T02:03:10.707Z,102029.91
2022-10-09T02:05:41.142Z,102026.38
2022-10-09T02:08:10.989Z,102028.13
2022-10-09T02:10:39.705Z,102025.50
2022-10-09T02:13:09.567Z,102029.03
2022-10-09T02:15:43.591Z,102034.34
2022-10-09T02:18:15.948Z,102036.09
2022-10-09T02:20:49.335Z,102041.41
2022-10-09T02:23:19.044Z,102040.56
2022-10-09T02:25:47.562Z,102039.69
2022-10-09T02:28:17.039Z,102032.56
2022-10-09T02:30:52.059Z,102041.44
2022-10-09T02:33:27.065Z,102036.09
2022-10-09T02:35:55.114Z,102042.34
2022-10-09T02:38:23.153Z,102035.25
2022-10-09T02:40:51.162Z,102033.47
2022-10-09T02:43:20.586Z,102036.13
2022-10-09T02:45:48.519Z,102038.78
2022-10-09T02:48:16.447Z,102037.03
2022-10-09T02:50:44.425Z,102040.56
2022-10-09T02:53:12.410Z,102042.34
2022-10-09T02:55:40.408Z,102044.09
2022-10-09T02:58:08.438Z,102044.09
2022-10-09T03:00:39.370Z,102053.84
2022-10-09T03:03:07.373Z,102051.16
2022-10-09T03:05:35.528Z,102057.38
2022-10-09T03:08:03.478Z,102054.72
2022-10-09T03:10:32.667Z,102054.72
2022-10-09T03:13:00.673Z,102063.56
2022-10-09T03:15:28.663Z,102058.25
2022-10-09T03:17:57.977Z,102065.34
2022-10-09T03:20:26.098Z,102060.94
2022-10-09T03:22:56.573Z,102067.13
2022-10-09T03:25:25.061Z,102070.66
2022-10-09T03:27:53.237Z,102051.19
2022-10-09T03:30:21.186Z,102071.56
2022-10-09T03:32:49.373Z,102071.56
2022-10-09T03:35:18.973Z,102071.56
2022-10-09T03:37:46.907Z,102072.44
2022-10-09T03:40:14.997Z,102080.44
2022-10-09T03:42:42.945Z,102077.78
2022-10-09T03:45:11.405Z,102076.00
2022-10-09T03:47:39.331Z,102074.22
2022-10-09T03:50:08.428Z,102083.06
2022-10-09T03:52:37.767Z,102088.38
2022-10-09T03:55:06.560Z,102089.28
2022-10-09T03:57:34.661Z,102083.97
2022-10-09T04:00:02.708Z,102095.47
2022-10-09T04:02:32.295Z,102094.59
2022-10-09T04:05:00.444Z,102091.94
2022-10-09T04:07:28.398Z,102094.59
2022-10-09T04:09:57.739Z,102100.75
2022-10-09T04:12:25.693Z,102095.41
2022-10-09T04:14:53.700Z,102097.16
2022-10-09T04:17:21.661Z,102100.69
2022-10-09T04:19:49.602Z,102110.41
2022-10-09T04:22:18.011Z,102100.59
2022-10-09T04:24:46.323Z,102106.75
2022-10-09T04:27:15.997Z,102112.06
2022-10-09T04:29:43.984Z,102106.72
2022-10-09T04:32:11.953Z,102107.53
2022-10-09T04:34:39.932Z,102105.75
2022-10-09T04:37:07.891Z,102104.84
2022-10-09T04:39:35.846Z,102096.84
2022-10-09T04:42:03.866Z,102099.47
2022-10-09T04:44:33.224Z,102094.13
2022-10-09T04:47:01.192Z,102093.19
2022-10-09T04:49:29.194Z,102093.16
2022-10-09T04:51:57.280Z,102093.19
2022-10-09T04:54:25.290Z,102092.25
2022-10-09T04:56:53.271Z,102088.72
2022-10-09T04:59:21.241Z,102088.69
2022-10-09T05:01:50.671Z,102085.94
2022-10-09T05:04:18.689Z,102088.50
2022-10-09T05:06:46.666Z,102094.66
2022-10-09T05:09:14.619Z,102096.53
2022-10-09T05:11:43.082Z,102093.91
2022-10-09T05:14:11.410Z,102078.84
2022-10-09T05:16:55.277Z,102093.06
2022-10-09T05:19:28.987Z,102101.03
2022-10-09T05:21:56.926Z,102093.03
2022-10-09T05:24:24.894Z,102094.72
2022-10-09T05:26:52.889Z,102092.03
2022-10-09T05:29:21.436Z,102106.97
2022-10-09T05:31:49.842Z,102106.88
2022-10-09T05:34:17.929Z,102098.75
2022-10-09T05:36:47.277Z,102104.03
2022-10-09T05:39:15.278Z,102106.75
2022-10-09T05:41:43.321Z,102106.78
2022-10-09T05:44:12.036Z,102105.00
2022-10-09T05:46:40.027Z,102101.47
2022-10-09T05:49:08.162Z,102108.56
2022-10-09T05:51:38.665Z,102113.03
2022-10-09T05:54:08.240Z,102114.84
2022-10-09T05:56:37.979Z,102116.66
2022-10-09T05:59:07.626Z,102106.91
2022-10-09T06:01:37.519Z,102114.03
2022-10-09T06:04:09.353Z,102108.72
2022-10-09T06:06:38.703Z,102111.38
2022-10-09T06:09:09.601Z,102108.75
2022-10-09T06:11:39.390Z,102114.94
2022-10-09T06:14:09.655Z,102115.81
2022-10-09T06:16:39.444Z,102120.34
2022-10-09T06:19:08.766Z,102122.19
2022-10-09T06:21:36.914Z,102120.41
2022-10-09T06:24:06.554Z,102118.72
2022-10-09T06:26:36.154Z,102124.94
2022-10-09T06:29:04.785Z,102130.28
2022-10-09T06:31:34.073Z,102123.28
2022-10-09T06:34:03.339Z,102132.19
2022-10-09T06:36:33.404Z,102136.66
2022-10-09T06:39:02.764Z,102136.69
2022-10-09T06:41:30.893Z,102142.91
2022-10-09T06:44:01.491Z,102140.34
2022-10-09T06:46:32.185Z,102139.50
2022-10-09T06:49:01.547Z,102143.94
2022-10-09T06:51:30.917Z,102146.63
2022-10-09T06:54:01.321Z,102146.66
2022-10-09T06:56:31.245Z,102147.53
2022-10-09T06:59:02.475Z,102148.47
2022-10-09T07:01:32.168Z,102157.31
2022-10-09T07:04:02.060Z,102157.34
2022-10-09T07:06:31.408Z,102160.03
2022-10-09T07:09:01.127Z,102161.81
2022-10-09T07:11:31.514Z,102166.28
2022-10-09T07:14:02.962Z,102133.47
2022-10-09T07:16:32.749Z,102166.31
2022-10-09T07:19:03.720Z,102169.00
2022-10-09T07:21:31.698Z,102162.81
2022-10-09T07:24:00.766Z,102165.47
2022-10-09T07:26:31.433Z,102168.16
2022-10-09T07:28:59.636Z,102169.06
2022-10-09T07:31:29.164Z,102164.63
2022-10-09T07:33:57.630Z,102169.06
2022-10-09T07:36:26.242Z,102174.41
2022-10-09T07:38:56.040Z,102169.97
2022-10-09T07:41:25.429Z,102169.06
2022-10-09T07:43:53.484Z,102172.63
2022-10-09T07:46:23.925Z,102177.97
2022-10-09T07:48:53.478Z,102179.72
2022-10-09T07:51:23.288Z,102178.81
2022-10-09T07:53:51.911Z,102172.63
2022-10-09T07:56:22.285Z,102180.63
2022-10-09T07:58:51.152Z,102154.88
2022-10-09T08:01:20.694Z,102169.06
2022-10-09T08:03:49.056Z,102179.72
2022-10-09T08:06:19.281Z,102178.84
2022-10-09T08:08:50.918Z,102186.81
2022-10-09T08:11:20.495Z,102184.13
2022-10-09T08:13:50.399Z,102188.53
2022-10-09T08:16:19.694Z,102181.44
2022-10-09T08:18:47.980Z,102168.13
2022-10-09T08:21:18.829Z,102190.28
2022-10-09T08:23:46.994Z,102189.38
2022-10-09T08:26:15.351Z,102189.34
2022-10-09T08:28:43.866Z,102189.34
2022-10-09T08:31:13.165Z,102194.69
2022-10-09T08:33:41.249Z,102195.53
2022-10-09T08:36:11.772Z,102198.19
2022-10-09T08:38:48.564Z,102197.28
2022-10-09T08:41:28.162Z,102198.13
2022-10-09T08:44:02.151Z,102190.13
2022-10-09T08:46:35.213Z,102198.97
2022-10-09T08:49:05.518Z,102197.16
2022-10-09T08:51:39.199Z,102197.09
2022-10-09T08:54:20.245Z,102190.81
2022-10-09T08:56:50.775Z,102185.44
2022-10-09T08:59:18.899Z,102180.91
2022-10-09T09:01:57.945Z,102181.75
2022-10-09T09:04:53.795Z,102181.69
2022-10-09T09:07:29.880Z,102188.75
2022-10-09T09:10:03.891Z,102193.13
2022-10-09T09:12:40.809Z,102196.66
2022-10-09T09:15:33.015Z,102189.47
2022-10-09T09:18:16.814Z,102191.19
2022-10-09T09:20:52.807Z,102189.34
2022-10-09T09:23:26.737Z,102186.63
2022-10-09T09:25:59.319Z,102186.59
2022-10-09T09:28:30.496Z,102174.97
2022-10-09T09:31:02.883Z,102182.00
2022-10-09T09:33:44.262Z,102181.06
2022-10-09T09:36:19.343Z,102149.94
2022-10-09T09:39:12.907Z,102176.41
2022-10-09T09:41:36.678Z,102172.78
2022-10-09T09:44:06.194Z,102174.53
2022-10-09T09:46:35.889Z,102162.00
2022-10-09T09:49:09.248Z,102170.75
2022-10-09T09:51:37.712Z,102168.03
2022-10-09T09:54:08.822Z,102171.50
2022-10-09T09:57:11.036Z,102160.72
2022-10-09T09:59:34.072Z,102164.06
2022-10-09T10:02:04.291Z,102167.59
2022-10-09T10:04:32.466Z,102165.63
2022-10-09T10:07:00.522Z,102158.44
2022-10-09T10:09:28.514Z,102169.06
2022-10-09T10:12:00.611Z,102162.72
2022-10-09T10:14:29.505Z,102160.03
2022-10-09T10:16:59.923Z,102159.88
2022-10-09T10:19:29.852Z,102159.03
2022-10-09T10:21:59.924Z,102152.75
2022-10-09T10:24:32.566Z,102157.97
2022-10-09T10:27:06.836Z,102152.53
2022-10-09T10:29:38.266Z,102152.53
2022-10-09T10:32:15.367Z,102155.09
2022-10-09T10:34:49.573Z,102151.50
2022-10-09T10:37:29.018Z,102159.47
2022-10-09T10:40:02.539Z,102150.34
2022-10-09T10:42:41.544Z,102150.09
2022-10-09T10:45:15.611Z,102138.50
2022-10-09T10:47:48.463Z,102154.34
2022-10-09T10:50:18.547Z,102148.78
2022-10-09T10:53:02.642Z,102150.50
2022-10-09T10:55:44.601Z,102148.72
2022-10-09T10:58:25.289Z,102149.56
2022-10-09T11:01:03.963Z,102141.41
2022-10-09T11:03:55.023Z,102137.56
2022-10-09T11:06:28.152Z,102144.50
2022-10-09T11:09:08.353Z,102143.63
2022-10-09T11:11:42.934Z,102133.66
2022-10-09T11:14:30.594Z,102135.41
2022-10-09T11:17:07.162Z,102123.03
2022-10-09T11:20:13.609Z,102127.44
2022-10-09T11:22:54.805Z,102122.09
2022-10-09T11:25:30.390Z,102121.31
2022-10-09T11:28:03.385Z,102113.31
2022-10-09T11:30:38.236Z,102122.25
2022-10-09T11:33:16.977Z,102112.31
2022-10-09T11:35:49.789Z,102104.84
2022-10-09T11:38:26.575Z,102102.81
2022-10-09T11:40:56.764Z,102100.78
2022-10-09T11:43:44.387Z,102094.50
2022-10-09T11:46:22.522Z,102093.72
2022-10-09T11:48:56.913Z,102085.81
2022-10-09T11:51:31.671Z,102085.81
2022-10-09T11:54:00.281Z,102083.78
2022-10-09T11:56:30.358Z,102074.81
2022-10-09T11:59:00.244Z,102081.13
2022-10-09T12:01:34.457Z,102075.59
2022-10-09T12:04:05.982Z,102073.84
2022-10-09T12:06:46.600Z,102074.59
2022-10-09T12:09:23.048Z,102067.41
2022-10-09T12:12:01.482Z,102062.97
2022-10-09T12:14:31.545Z,102060.34
2022-10-09T12:17:01.168Z,102040.81
2022-10-09T12:19:32.370Z,102048.53
2022-10-09T12:22:05.165Z,102047.25
2022-10-09T12:24:38.711Z,102051.41
2022-10-09T12:27:07.648Z,102047.34
2022-10-09T12:29:42.902Z,102035.06
2022-10-09T12:32:18.332Z,102028.13
2022-10-09T12:34:48.786Z,102027.66
2022-10-09T12:37:18.897Z,102035.19
2022-10-09T12:39:48.118Z,102029.25
2022-10-09T12:42:20.390Z,102022.81
2022-10-09T12:44:50.630Z,102025.31
2022-10-09T12:47:23.658Z,102018.34
2022-10-09T12:50:02.076Z,102008.44
2022-10-09T12:52:32.494Z,102003.00
2022-10-09T12:55:02.532Z,101995.31
2022-10-09T12:57:30.758Z,101996.47
2022-10-09T12:59:59.289Z,101995.75
2022-10-09T13:02:28.815Z,101983.31
2022-10-09T13:05:00.617Z,101988.31
2022-10-09T13:07:32.356Z,101981.72
2022-10-09T13:10:04.727Z,101982.03
2022-10-09T13:12:33.553Z,101989.41
2022-10-09T13:15:03.363Z,101984.34
2022-10-09T13:17:34.824Z,101980.16
2022-10-09T13:20:23.811Z,101973.00
2022-10-09T13:22:55.850Z,101965.56
2022-10-09T13:25:24.256Z,101951.78
2022-10-09T13:27:52.495Z,101962.22
2022-10-09T13:30:20.653Z,101958.09
2022-10-09T13:32:50.159Z,101956.44
2022-10-09T13:35:18.438Z,101960.91
2022-10-09T13:37:46.660Z,101956.94
2022-10-09T13:40:18.029Z,101954.81
2022-10-09T13:42:51.672Z,101949.28
2022-10-09T13:45:19.795Z,101949.13
2022-10-09T13:47:47.963Z,101936.31
2022-10-09T13:50:19.923Z,101928.41
2022-10-09T13:52:47.902Z,101933.44
2022-10-09T13:55:16.023Z,101929.69
2022-10-09T13:57:44.077Z,101927.41
2022-10-09T14:00:13.247Z,101908.66
2022-10-09T14:02:41.229Z,101916.59
2022-10-09T14:05:09.592Z,101921.59
2022-10-09T14:07:38.921Z,101913.91
2022-10-09T14:10:07.691Z,101922.88
2022-10-09T14:12:35.701Z,101908.56
2022-10-09T14:15:03.726Z,101904.94
2022-10-09T14:17:31.734Z,101918.63
2022-10-09T14:19:59.711Z,101913.38
2022-10-09T14:22:27.863Z,101907.84
2022-10-09T14:24:57.257Z,101902.31
2022-10-09T14:27:25.352Z,101895.63
2022-10-09T14:29:55.395Z,101895.84
2022-10-09T14:32:25.570Z,101894.19
2022-10-09T14:34:53.866Z,101890.81
2022-10-09T14:37:39.845Z,101888.34
2022-10-09T14:40:11.322Z,101882.38
2022-10-09T14:42:40.588Z,101877.19
2022-10-09T14:45:10.435Z,101868.34
2022-10-09T14:47:38.662Z,101869.25
2022-10-09T14:50:07.445Z,101859.47
2022-10-09T14:52:35.525Z,101859.63
2022-10-09T14:55:03.669Z,101857.78
2022-10-09T14:57:35.457Z,101863.50
2022-10-09T15:00:05.728Z,101852.06
2022-10-09T15:02:33.806Z,101854.81
2022-10-09T15:05:01.892Z,101844.28
2022-10-09T15:07:29.914Z,101850.59
2022-10-09T15:09:57.942Z,101845.41
2022-10-09T15:12:25.943Z,101844.47
2022-10-09T15:14:55.313Z,101840.31
2022-10-09T15:17:23.279Z,101842.25
2022-10-09T15:19:51.253Z,101827.13
2022-10-09T15:22:19.245Z,101835.50
2022-10-09T15:24:48.102Z,101831.09
2022-10-09T15:27:16.168Z,101826.91
2022-10-09T15:29:44.161Z,101825.44
2022-10-09T15:32:13.652Z,101828.13
2022-10-09T15:34:41.668Z,101822.84
2022-10-09T15:37:09.985Z,101825.91
2022-10-09T15:39:38.148Z,101820.81
2022-10-09T15:42:06.345Z,101814.78
2022-10-09T15:44:34.371Z,101807.00
2022-10-09T15:47:02.341Z,101803.78
2022-10-09T15:49:31.718Z,101804.09
2022-10-09T15:51:59.888Z,101810.69
2022-10-09T15:54:27.948Z,101806.31
2022-10-09T15:56:55.910Z,101796.88
2022-10-09T15:59:23.951Z,101802.44
2022-10-09T16:01:51.986Z,101795.34
2022-10-09T16:04:20.062Z,101798.28
2022-10-09T16:06:49.409Z,101788.81
2022-10-09T16:09:17.361Z,101782.78
2022-10-09T16:11:45.356Z,101778.69
2022-10-09T16:14:13.399Z,101787.81
2022-10-09T16:16:41.482Z,101780.13
2022-10-09T16:19:09.528Z,101783.97
2022-10-09T16:21:37.664Z,101784.22
2022-10-09T16:24:07.201Z,101778.28
2022-10-09T16:26:35.429Z,101781.28
2022-10-09T16:29:03.410Z,101782.56
2022-10-09T16:31:34.754Z,101779.22
2022-10-09T16:34:03.927Z,101777.53
2022-10-09T16:36:31.942Z,101778.78
2022-10-09T16:39:00.197Z,101779.97
2022-10-09T16:41:29.692Z,101781.00
2022-10-09T16:44:00.123Z,101784.66
2022-10-09T16:46:30.245Z,101780.34
2022-10-09T16:48:59.497Z,101771.53
2022-10-09T16:51:29.471Z,101778.75
2022-10-09T16:53:59.290Z,101777.03
2022-10-09T16:56:32.814Z,101775.31
2022-10-09T16:59:02.334Z,101774.44
2022-10-09T17:01:30.340Z,101778.06
2022-10-09T17:03:59.987Z,101775.56
2022-10-09T17:06:28.627Z,101777.38
2022-10-09T17:08:58.675Z,101774.78
2022-10-09T17:11:32.412Z,101779.22
2022-10-09T17:14:01.766Z,101784.56
2022-10-09T17:16:32.279Z,101777.66
2022-10-09T17:19:00.720Z,101778.59
2022-10-09T17:21:33.012Z,101780.47
2022-10-09T17:24:04.489Z,101780.56
2022-10-09T17:26:32.582Z,101778.94
2022-10-09T17:29:02.596Z,101786.13
2022-10-09T17:31:31.577Z,101773.72
2022-10-09T17:34:02.609Z,101772.88
2022-10-09T17:36:34.000Z,101774.72
2022-10-09T17:39:02.212Z,101746.56
2022-10-09T17:41:30.749Z,101765.19
2022-10-09T17:43:59.719Z,101762.56
2022-10-09T17:46:30.617Z,101766.22
2022-10-09T17:48:59.659Z,101761.00
2022-10-09T17:51:30.035Z,101763.72
2022-10-09T17:54:01.134Z,101755.81
2022-10-09T17:56:30.103Z,101741.66
2022-10-09T17:58:59.842Z,101750.56
2022-10-09T18:01:29.913Z,101747.91
2022-10-09T18:03:58.470Z,101744.38
2022-10-09T18:06:27.009Z,101739.97
2022-10-09T18:08:57.227Z,101740.81
2022-10-09T18:11:26.598Z,101738.19
2022-10-09T18:13:55.531Z,101735.59
2022-10-09T18:16:32.704Z,101742.69
2022-10-09T18:19:06.235Z,101736.50
2022-10-09T18:21:35.132Z,101742.69
2022-10-09T18:24:03.206Z,101736.44
2022-10-09T18:26:31.202Z,101730.28
2022-10-09T18:28:59.924Z,101725.84
2022-10-09T18:31:28.559Z,101729.41
2022-10-09T18:33:58.034Z,101722.34
2022-10-09T18:36:31.400Z,101725.91
2022-10-09T18:39:02.234Z,101716.16
2022-10-09T18:41:30.643Z,101719.69
2022-10-09T18:44:00.244Z,101718.78
2022-10-09T18:46:31.963Z,101715.22
2022-10-09T18:49:00.571Z,101716.09
2022-10-09T18:51:30.111Z,101717.88
2022-10-09T18:54:02.782Z,101712.59
2022-10-09T18:56:32.953Z,101719.69
2022-10-09T18:59:02.182Z,101712.59
2022-10-09T19:01:30.291Z,101714.38
2022-10-09T19:03:58.244Z,101718.78
2022-10-09T19:06:26.311Z,101717.94
2022-10-09T19:08:57.881Z,101711.72
2022-10-09T19:11:25.966Z,101706.50
2022-10-09T19:13:54.608Z,101703.84
2022-10-09T19:16:24.256Z,101713.63
2022-10-09T19:18:53.217Z,101703.97
2022-10-09T19:21:21.230Z,101705.75
2022-10-09T19:23:51.597Z,101701.38
2022-10-09T19:26:21.411Z,101696.94
2022-10-09T19:28:50.033Z,101696.09
2022-10-09T19:31:18.310Z,101695.25
2022-10-09T19:33:46.376Z,101691.69
2022-10-09T19:36:15.658Z,101689.94
2022-10-09T19:38:43.748Z,101689.91
2022-10-09T19:41:14.310Z,101681.03
2022-10-09T19:43:43.937Z,101679.22
2022-10-09T19:46:14.817Z,101672.13
2022-10-09T19:48:42.797Z,101668.56
2022-10-09T19:51:13.126Z,101674.75
2022-10-09T19:53:42.288Z,101670.34
2022-10-09T19:56:12.195Z,101676.56
2022-10-09T19:58:41.096Z,101674.81
2022-10-09T20:01:10.787Z,101668.59
2022-10-09T20:03:39.075Z,101660.63
2022-10-09T20:06:09.499Z,101640.31
2022-10-09T20:08:37.950Z,101667.69
2022-10-09T20:11:06.822Z,101662.38
2022-10-09T20:13:36.903Z,101657.09
2022-10-09T20:16:07.740Z,101664.19
2022-10-09T20:18:39.222Z,101661.53
2022-10-09T20:21:07.588Z,101658.00
2022-10-09T20:23:35.615Z,101656.16
2022-10-09T20:26:05.430Z,101654.41
2022-10-09T20:28:34.087Z,101649.94
2022-10-09T20:31:06.283Z,101646.38
2022-10-09T20:33:34.797Z,101647.25
2022-10-09T20:36:05.485Z,101646.34
2022-10-09T20:38:33.536Z,101641.03
2022-10-09T20:41:06.583Z,101639.28
2022-10-09T20:43:34.783Z,101641.03
2022-10-09T20:46:07.089Z,101639.28
2022-10-09T20:48:35.274Z,101639.28
2022-10-09T20:51:04.916Z,101639.28
2022-10-09T20:53:33.209Z,101618.97
2022-10-09T20:56:01.986Z,101637.47
2022-10-09T20:58:30.363Z,101628.63
2022-10-09T21:00:58.660Z,101633.06
2022-10-09T21:03:27.159Z,101625.97
2022-10-09T21:05:55.187Z,101618.84
2022-10-09T21:08:24.513Z,101623.31
2022-10-09T21:10:52.506Z,101622.34
2022-10-09T21:13:20.513Z,101622.38
2022-10-09T21:15:50.100Z,101625.00
2022-10-09T21:18:20.051Z,101621.44
2022-10-09T21:20:49.441Z,101617.84
2022-10-09T21:23:19.594Z,101619.63
2022-10-09T21:25:50.585Z,101615.22
2022-10-09T21:28:19.201Z,101614.34
2022-10-09T21:30:47.877Z,101612.53
2022-10-09T21:33:16.745Z,101588.81
2022-10-09T21:35:46.522Z,101617.97
2022-10-09T21:38:17.304Z,101615.38
2022-10-09T21:40:46.171Z,101615.38
2022-10-09T21:43:15.795Z,101603.94
2022-10-09T21:45:44.474Z,101607.47
2022-10-09T21:48:16.511Z,101603.13
2022-10-09T21:50:45.231Z,101594.22
2022-10-09T21:53:13.665Z,101598.69
2022-10-09T21:55:41.777Z,101592.50
2022-10-09T21:58:10.788Z,101589.00
2022-10-09T22:00:40.253Z,101588.13
2022-10-09T22:03:08.194Z,101574.88
2022-10-09T22:05:36.188Z,101581.97
2022-10-09T22:08:04.182Z,101577.59
2022-10-09T22:10:32.149Z,101569.63
2022-10-09T22:13:00.278Z,101566.09
2022-10-09T22:15:28.356Z,101564.34
2022-10-09T22:17:57.701Z,101560.78
2022-10-09T22:20:25.733Z,101554.63
2022-10-09T22:22:53.805Z,101558.19
2022-10-09T22:25:21.788Z,101544.03
2022-10-09T22:27:49.763Z,101545.78
2022-10-09T22:30:17.816Z,101549.31
2022-10-09T22:32:45.775Z,101545.81
2022-10-09T22:35:15.081Z,101536.97
2022-10-09T22:37:43.021Z,101536.94
2022-10-09T22:40:11.602Z,101536.97
2022-10-09T22:42:39.647Z,101540.53
2022-10-09T22:45:09.043Z,101537.88
2022-10-09T22:47:37.061Z,101538.75
2022-10-09T22:50:05.418Z,101524.59
2022-10-09T22:52:34.767Z,101534.38
2022-10-09T22:55:03.485Z,101531.72
2022-10-09T22:57:31.497Z,101520.25
2022-10-09T22:59:59.454Z,101517.59
2022-10-09T23:02:27.419Z,101517.59
2022-10-09T23:04:55.381Z,101521.13
2022-10-09T23:07:23.367Z,101513.16
2022-10-09T23:09:52.765Z,101504.34
2022-10-09T23:12:20.722Z,101512.28
2022-10-09T23:14:48.719Z,101506.09
2022-10-09T23:17:16.655Z,101504.38
2022-10-09T23:19:44.616Z,101503.50
2022-10-09T23:22:12.623Z,101499.13
2022-10-09T23:24:40.636Z,101498.22
2022-10-09T23:27:10.125Z,101493.81
2022-10-09T23:29:38.108Z,101494.69
2022-10-09T23:32:06.081Z,101483.25
2022-10-09T23:34:34.066Z,101475.28
2022-10-09T23:37:02.023Z,101473.53
2022-10-09T23:39:30.010Z,101472.66
2022-10-09T23:41:57.985Z,101476.16
2022-10-09T23:44:27.334Z,101469.09
2022-10-09T23:46:55.354Z,101462.91
2022-10-09T23:49:23.392Z,101468.22
2022-10-09T23:51:51.393Z,101456.75
2022-10-09T23:54:19.326Z,101454.09
2022-10-09T23:56:47.292Z,101454.97
2022-10-09T23:59:15.376Z,101455.81
